createdAt,value
2022-12-23T00:01:42.207Z,6.07
2022-12-23T00:04:10.796Z,6.08
2022-12-23T00:06:39.211Z,6.07
2022-12-23T00:09:07.792Z,6.08
2022-12-23T00:11:57.469Z,6.10
2022-12-23T00:14:43.470Z,6.08
2022-12-23T00:17:28.341Z,6.10
2022-12-23T00:19:57.102Z,6.12
2022-12-23T00:22:46.165Z,6.11
2022-12-23T00:25:15.097Z,6.12
2022-12-23T00:28:01.383Z,6.11
2022-12-23T00:30:30.247Z,6.11
2022-12-23T00:32:58.702Z,6.08
2022-12-23T00:35:27.088Z,6.08
2022-12-23T00:37:55.432Z,6.10
2022-12-23T00:40:41.312Z,6.09
2022-12-23T00:43:11.098Z,6.09
2022-12-23T00:45:39.564Z,6.10
2022-12-23T00:48:25.586Z,6.09
2022-12-23T00:50:54.511Z,6.08
2022-12-23T00:53:23.304Z,6.07
2022-12-23T00:55:52.087Z,6.07
2022-12-23T00:58:23.101Z,6.07
2022-12-23T01:01:08.842Z,6.09
2022-12-23T01:03:54.902Z,6.06
2022-12-23T01:06:23.390Z,6.05
2022-12-23T01:08:51.750Z,6.04
2022-12-23T01:11:20.626Z,6.04
2022-12-23T01:13:50.542Z,6.05
2022-12-23T01:16:19.009Z,6.04
2022-12-23T01:18:47.525Z,6.05
2022-12-23T01:21:15.925Z,6.02
2022-12-23T01:23:44.391Z,6.00
2022-12-23T01:26:13.465Z,6.00
2022-12-23T01:28:41.831Z,5.99
2022-12-23T01:31:12.836Z,6.00
2022-12-23T01:33:41.316Z,5.99
2022-12-23T01:36:11.580Z,6.00
2022-12-23T01:38:40.261Z,5.98
2022-12-23T01:41:08.753Z,5.96
2022-12-23T01:43:48.227Z,5.97
2022-12-23T01:46:18.086Z,5.97
2022-12-23T01:48:51.901Z,5.98
2022-12-23T01:51:25.485Z,5.98
2022-12-23T01:54:01.220Z,6.00
2022-12-23T01:56:34.360Z,5.99
2022-12-23T01:59:09.397Z,6.02
2022-12-23T02:01:56.980Z,6.05
2022-12-23T02:04:27.008Z,6.08
2022-12-23T02:07:12.533Z,6.09
2022-12-23T02:09:41.898Z,6.08
2022-12-23T02:12:41.584Z,6.10
2022-12-23T02:15:53.003Z,6.10
2022-12-23T02:19:09.586Z,6.11
2022-12-23T02:22:02.555Z,6.13
2022-12-23T02:25:28.412Z,6.13
2022-12-23T02:28:18.602Z,6.12
2022-12-23T02:30:56.321Z,6.15
2022-12-23T02:33:50.184Z,6.13
2022-12-23T02:36:39.513Z,6.13
2022-12-23T02:39:16.313Z,6.14
2022-12-23T02:41:55.681Z,6.16
2022-12-23T02:44:31.342Z,6.16
2022-12-23T02:47:06.661Z,6.18
2022-12-23T02:49:39.845Z,6.17
2022-12-23T02:52:15.464Z,6.18
2022-12-23T02:54:47.305Z,6.21
2022-12-23T02:57:19.426Z,6.22
2022-12-23T02:59:52.351Z,6.21
2022-12-23T03:02:22.596Z,6.24
2022-12-23T03:04:51.075Z,6.24
2022-12-23T03:07:25.561Z,6.24
2022-12-23T03:10:04.867Z,6.26
2022-12-23T03:12:52.453Z,6.28
2022-12-23T03:15:33.396Z,6.31
2022-12-23T03:18:12.831Z,6.32
2022-12-23T03:20:50.977Z,6.32
2022-12-23T03:23:27.575Z,6.32
2022-12-23T03:26:03.747Z,6.31
2022-12-23T03:28:41.120Z,6.33
2022-12-23T03:31:14.282Z,6.34
2022-12-23T03:33:49.340Z,6.37
2022-12-23T03:36:24.346Z,6.38
2022-12-23T03:38:56.085Z,6.40
2022-12-23T03:41:32.503Z,6.43
2022-12-23T03:44:06.638Z,6.44
2022-12-23T03:46:40.926Z,6.48
2022-12-23T03:49:15.680Z,6.47
2022-12-23T03:51:52.367Z,6.50
2022-12-23T03:54:28.668Z,6.52
2022-12-23T03:57:03.514Z,6.50
2022-12-23T03:59:35.859Z,6.50
2022-12-23T04:02:10.527Z,6.51
2022-12-23T04:04:58.770Z,6.49
2022-12-23T04:07:32.625Z,6.49
2022-12-23T04:10:01.883Z,6.47
2022-12-23T04:12:31.676Z,6.48
2022-12-23T04:15:00.376Z,6.48
2022-12-23T04:17:30.055Z,6.50
2022-12-23T04:19:59.884Z,6.48
2022-12-23T04:22:28.283Z,6.49
2022-12-23T04:24:56.764Z,6.48
2022-12-23T04:27:25.093Z,6.48
2022-12-23T04:29:53.508Z,6.47
2022-12-23T04:32:21.890Z,6.49
2022-12-23T04:34:50.251Z,6.48
2022-12-23T04:37:20.065Z,6.44
2022-12-23T04:39:48.449Z,6.45
2022-12-23T04:42:16.866Z,6.44
2022-12-23T04:44:45.286Z,6.41
2022-12-23T04:47:13.709Z,6.40
2022-12-23T04:49:42.195Z,6.35
2022-12-23T04:52:10.900Z,6.32
2022-12-23T04:54:45.918Z,6.32
2022-12-23T04:57:16.120Z,6.27
2022-12-23T04:59:44.619Z,6.25
2022-12-23T05:02:13.298Z,6.23
2022-12-23T05:04:42.258Z,6.23
2022-12-23T05:07:10.677Z,6.23
2022-12-23T05:09:40.429Z,6.23
2022-12-23T05:12:08.826Z,6.22
2022-12-23T05:14:37.205Z,6.20
2022-12-23T05:17:08.031Z,6.17
2022-12-23T05:19:36.598Z,6.19
2022-12-23T05:22:04.977Z,6.18
2022-12-23T05:24:33.390Z,6.17
2022-12-23T05:27:03.302Z,6.14
2022-12-23T05:29:31.729Z,6.14
2022-12-23T05:32:00.264Z,6.14
2022-12-23T05:34:28.783Z,6.16
2022-12-23T05:36:57.244Z,6.17
2022-12-23T05:39:25.655Z,6.17
2022-12-23T05:41:53.990Z,6.16
2022-12-23T05:44:23.840Z,6.16
2022-12-23T05:46:52.277Z,6.12
2022-12-23T05:49:20.874Z,6.16
2022-12-23T05:51:49.284Z,6.14
2022-12-23T05:54:17.829Z,6.12
2022-12-23T05:56:46.197Z,6.09
2022-12-23T05:59:14.686Z,6.09
2022-12-23T06:01:44.628Z,6.09
2022-12-23T06:04:13.210Z,6.07
2022-12-23T06:06:41.592Z,6.07
2022-12-23T06:09:11.448Z,6.05
2022-12-23T06:11:39.825Z,6.03
2022-12-23T06:14:08.404Z,5.99
2022-12-23T06:16:37.001Z,5.97
2022-12-23T06:19:07.038Z,5.94
2022-12-23T06:21:35.494Z,5.93
2022-12-23T06:24:04.892Z,5.93
2022-12-23T06:26:33.952Z,5.94
2022-12-23T06:29:02.582Z,5.93
2022-12-23T06:31:31.030Z,5.94
2022-12-23T06:33:59.443Z,5.93
2022-12-23T06:36:29.295Z,5.94
2022-12-23T06:38:57.623Z,5.94
2022-12-23T06:41:25.987Z,5.94
2022-12-23T06:43:54.764Z,5.96
2022-12-23T06:46:23.350Z,5.96
2022-12-23T06:48:51.938Z,5.95
2022-12-23T06:51:20.506Z,5.93
2022-12-23T06:53:50.309Z,5.92
2022-12-23T06:56:18.971Z,5.91
2022-12-23T06:58:47.510Z,5.91
2022-12-23T07:01:15.985Z,5.94
2022-12-23T07:03:44.463Z,5.97
2022-12-23T07:06:13.097Z,5.98
2022-12-23T07:08:41.501Z,5.98
2022-12-23T07:11:11.246Z,5.96
2022-12-23T07:13:39.884Z,6.00
2022-12-23T07:16:10.540Z,6.01
2022-12-23T07:18:39.004Z,6.04
2022-12-23T07:21:14.028Z,6.09
2022-12-23T07:23:48.575Z,6.11
2022-12-23T07:26:18.673Z,6.15
2022-12-23T07:28:48.490Z,6.18
2022-12-23T07:31:17.197Z,6.17
2022-12-23T07:33:45.845Z,6.16
2022-12-23T07:36:15.721Z,6.17
2022-12-23T07:38:44.371Z,6.19
2022-12-23T07:41:12.802Z,6.22
2022-12-23T07:43:42.665Z,6.20
2022-12-23T07:46:11.781Z,6.19
2022-12-23T07:48:41.974Z,6.20
2022-12-23T07:51:11.416Z,6.20
2022-12-23T07:53:39.863Z,6.19
2022-12-23T07:56:09.302Z,6.18
2022-12-23T07:58:37.874Z,6.20
2022-12-23T08:01:09.222Z,6.22
2022-12-23T08:03:38.821Z,6.24
2022-12-23T08:06:12.699Z,6.22
2022-12-23T08:08:42.983Z,6.22
2022-12-23T08:11:13.408Z,6.23
2022-12-23T08:13:44.821Z,6.20
2022-12-23T08:16:14.766Z,6.20
2022-12-23T08:18:43.751Z,6.21
2022-12-23T08:21:17.986Z,6.22
2022-12-23T08:23:47.222Z,6.23
2022-12-23T08:26:18.072Z,6.27
2022-12-23T08:28:47.338Z,6.27
2022-12-23T08:31:20.905Z,6.31
2022-12-23T08:33:52.599Z,6.32
2022-12-23T08:36:25.040Z,6.34
2022-12-23T08:38:56.098Z,6.37
2022-12-23T08:41:29.016Z,6.37
2022-12-23T08:43:58.308Z,6.43
2022-12-23T08:46:28.837Z,6.48
2022-12-23T08:48:57.405Z,6.52
2022-12-23T08:51:28.045Z,6.58
2022-12-23T08:54:00.999Z,6.64
2022-12-23T08:56:32.761Z,6.68
2022-12-23T08:59:01.928Z,6.74
2022-12-23T09:01:36.156Z,6.76
2022-12-23T09:04:05.928Z,6.82
2022-12-23T09:06:37.553Z,6.83
2022-12-23T09:09:06.988Z,6.86
2022-12-23T09:11:36.176Z,6.88
2022-12-23T09:14:05.864Z,6.88
2022-12-23T09:16:35.798Z,6.87
2022-12-23T09:19:04.933Z,6.89
2022-12-23T09:21:33.566Z,6.88
2022-12-23T09:24:02.118Z,6.89
2022-12-23T09:26:32.695Z,6.86
2022-12-23T09:29:01.492Z,6.86
2022-12-23T09:31:36.163Z,6.86
2022-12-23T09:34:07.608Z,6.83
2022-12-23T09:36:36.080Z,6.80
2022-12-23T09:39:04.873Z,6.82
2022-12-23T09:41:54.682Z,6.82
2022-12-23T09:44:41.728Z,6.81
2022-12-23T09:47:15.664Z,6.83
2022-12-23T09:49:49.894Z,6.83
2022-12-23T09:52:26.688Z,6.83
2022-12-23T09:54:56.671Z,6.81
2022-12-23T09:57:36.523Z,6.76
2022-12-23T10:00:12.641Z,6.77
2022-12-23T10:02:57.091Z,6.77
2022-12-23T10:05:36.983Z,6.74
2022-12-23T10:08:13.830Z,6.74
2022-12-23T10:10:48.513Z,6.71
2022-12-23T10:13:26.927Z,6.70
2022-12-23T10:15:59.943Z,6.68
2022-12-23T10:18:42.516Z,6.67
2022-12-23T10:21:19.339Z,6.64
2022-12-23T10:23:53.416Z,6.63
2022-12-23T10:26:32.806Z,6.63
2022-12-23T10:29:18.363Z,6.60
2022-12-23T10:32:01.603Z,6.62
2022-12-23T10:34:44.825Z,6.57
2022-12-23T10:37:26.773Z,6.57
2022-12-23T10:40:15.705Z,6.56
2022-12-23T10:42:56.451Z,6.59
2022-12-23T10:45:42.265Z,6.59
2022-12-23T10:48:28.992Z,6.57
2022-12-23T10:51:02.550Z,6.56
2022-12-23T10:53:38.657Z,6.58
2022-12-23T10:56:08.543Z,6.58
2022-12-23T10:58:43.413Z,6.54
2022-12-23T11:01:24.038Z,6.54
2022-12-23T11:04:02.928Z,6.50
2022-12-23T11:06:37.525Z,6.50
2022-12-23T11:09:13.624Z,6.47
2022-12-23T11:11:59.443Z,6.45
2022-12-23T11:14:34.823Z,6.43
2022-12-23T11:17:03.494Z,6.44
2022-12-23T11:19:32.334Z,6.40
2022-12-23T11:22:02.464Z,6.40
2022-12-23T11:24:39.667Z,6.41
2022-12-23T11:27:17.176Z,6.41
2022-12-23T11:29:49.317Z,6.42
2022-12-23T11:32:21.723Z,6.47
2022-12-23T11:34:51.245Z,6.49
2022-12-23T11:37:33.414Z,6.47
2022-12-23T11:40:04.947Z,6.48
2022-12-23T11:42:35.866Z,6.46
2022-12-23T11:45:09.914Z,6.43
2022-12-23T11:47:41.078Z,6.43
2022-12-23T11:50:32.450Z,6.44
2022-12-23T11:53:15.330Z,6.43
2022-12-23T11:56:01.521Z,6.40
2022-12-23T11:58:32.064Z,6.38
2022-12-23T12:01:08.091Z,6.35
2022-12-23T12:03:47.330Z,6.36
2022-12-23T12:06:17.682Z,6.34
2022-12-23T12:08:52.233Z,6.29
2022-12-23T12:11:27.748Z,6.29
2022-12-23T12:14:00.791Z,6.32
2022-12-23T12:16:51.853Z,6.32
2022-12-23T12:19:26.813Z,6.31
2022-12-23T12:22:00.553Z,6.33
2022-12-23T12:24:34.416Z,6.31
2022-12-23T12:27:08.680Z,6.32
2022-12-23T12:29:42.915Z,6.31
2022-12-23T12:32:22.421Z,6.32
2022-12-23T12:34:58.196Z,6.29
2022-12-23T12:37:37.093Z,6.33
2022-12-23T12:40:19.553Z,6.33
2022-12-23T12:42:58.026Z,6.34
2022-12-23T12:45:34.914Z,6.33
2022-12-23T12:48:32.870Z,6.30
2022-12-23T12:51:12.356Z,6.25
2022-12-23T12:54:06.008Z,6.26
2022-12-23T12:56:42.639Z,6.28
2022-12-23T12:59:18.546Z,6.29
2022-12-23T13:02:23.928Z,6.26
2022-12-23T13:05:37.064Z,6.27
2022-12-23T13:08:24.708Z,6.26
2022-12-23T13:10:58.434Z,6.21
2022-12-23T13:13:40.415Z,6.20
2022-12-23T13:16:24.581Z,6.19
2022-12-23T13:18:59.558Z,6.16
2022-12-23T13:21:38.515Z,6.14
2022-12-23T13:24:22.633Z,6.16
2022-12-23T13:27:05.952Z,6.17
2022-12-23T13:30:04.791Z,6.19
2022-12-23T13:33:08.065Z,6.21
2022-12-23T13:36:05.037Z,6.24
2022-12-23T13:39:09.251Z,6.24
2022-12-23T13:41:42.242Z,6.25
2022-12-23T13:44:13.659Z,6.25
2022-12-23T13:46:53.429Z,6.27
2022-12-23T13:49:39.424Z,6.31
2022-12-23T13:52:13.164Z,6.33
2022-12-23T13:54:56.030Z,6.35
2022-12-23T13:57:44.678Z,6.36
2022-12-23T14:00:28.614Z,6.41
2022-12-23T14:03:20.256Z,6.45
2022-12-23T14:05:51.566Z,6.46
2022-12-23T14:08:33.834Z,6.49
2022-12-23T14:11:12.111Z,6.49
2022-12-23T14:13:44.801Z,6.52
2022-12-23T14:16:46.697Z,6.55
2022-12-23T14:19:37.114Z,6.59
2022-12-23T14:22:36.451Z,6.61
2022-12-23T14:25:56.369Z,6.63
2022-12-23T14:28:48.960Z,6.64
2022-12-23T14:31:39.871Z,6.68
2022-12-23T14:34:31.454Z,6.67
2022-12-23T14:37:37.043Z,6.67
2022-12-23T14:40:56.755Z,6.67
2022-12-23T14:43:32.560Z,6.65
2022-12-23T14:46:04.893Z,6.66
2022-12-23T14:49:38.763Z,6.65
2022-12-23T14:53:04.329Z,6.67
2022-12-23T14:55:53.595Z,6.65
2022-12-23T14:59:09.733Z,6.66
2022-12-23T15:01:41.968Z,6.65
2022-12-23T15:04:19.530Z,6.64
2022-12-23T15:06:53.164Z,6.65
2022-12-23T15:09:31.505Z,6.64
2022-12-23T15:12:06.122Z,6.68
2022-12-23T15:14:40.848Z,6.68
2022-12-23T15:17:27.034Z,6.71
2022-12-23T15:20:05.503Z,6.73
2022-12-23T15:22:34.515Z,6.74
2022-12-23T15:25:04.793Z,6.74
2022-12-23T15:27:37.924Z,6.78
2022-12-23T15:30:11.758Z,6.81
2022-12-23T15:32:42.335Z,6.84
2022-12-23T15:35:18.789Z,6.85
2022-12-23T15:37:50.600Z,6.87
2022-12-23T15:40:29.957Z,6.89
2022-12-23T15:42:59.135Z,6.89
2022-12-23T15:45:39.281Z,6.91
2022-12-23T15:48:25.240Z,6.91
2022-12-23T15:50:59.499Z,6.91
2022-12-23T15:53:33.967Z,6.93
2022-12-23T15:56:10.550Z,6.93
2022-12-23T15:58:43.435Z,6.94
2022-12-23T16:01:17.231Z,6.96
2022-12-23T16:03:53.242Z,6.96
2022-12-23T16:06:25.327Z,6.97
2022-12-23T16:09:03.919Z,7.01
2022-12-23T16:11:54.025Z,7.01
2022-12-23T16:14:37.685Z,7.03
2022-12-23T16:17:22.473Z,7.06
2022-12-23T16:19:53.645Z,7.07
2022-12-23T16:22:30.198Z,7.06
2022-12-23T16:25:17.225Z,7.08
2022-12-23T16:27:51.218Z,7.08
2022-12-23T16:30:22.790Z,7.09
2022-12-23T16:32:55.282Z,7.06
2022-12-23T16:35:36.292Z,7.11
2022-12-23T16:38:16.546Z,7.11
2022-12-23T16:40:47.405Z,7.13
2022-12-23T16:43:18.142Z,7.12
2022-12-23T16:45:50.768Z,7.14
2022-12-23T16:48:27.272Z,7.13
2022-12-23T16:50:56.272Z,7.14
2022-12-23T16:53:24.671Z,7.13
2022-12-23T16:55:58.504Z,7.15
2022-12-23T16:58:30.527Z,7.14
2022-12-23T17:00:59.193Z,7.15
2022-12-23T17:03:27.635Z,7.16
2022-12-23T17:05:57.449Z,7.14
2022-12-23T17:08:25.860Z,7.17
2022-12-23T17:10:54.373Z,7.16
2022-12-23T17:13:22.762Z,7.19
2022-12-23T17:15:52.785Z,7.18
2022-12-23T17:18:21.279Z,7.21
2022-12-23T17:20:50.936Z,7.19
2022-12-23T17:23:28.280Z,7.21
2022-12-23T17:25:57.133Z,7.23
2022-12-23T17:28:29.397Z,7.24
2022-12-23T17:31:00.253Z,7.23
2022-12-23T17:33:31.426Z,7.25
2022-12-23T17:35:59.976Z,7.24
2022-12-23T17:38:29.167Z,7.26
2022-12-23T17:40:59.455Z,7.28
2022-12-23T17:43:28.497Z,7.28
2022-12-23T17:45:58.629Z,7.29
2022-12-23T17:48:31.728Z,7.29
2022-12-23T17:51:00.659Z,7.30
2022-12-23T17:53:29.022Z,7.30
2022-12-23T17:55:57.551Z,7.30
2022-12-23T17:58:25.926Z,7.29
2022-12-23T18:00:54.485Z,7.31
2022-12-23T18:03:25.195Z,7.30
2022-12-23T18:06:01.262Z,7.30
2022-12-23T18:08:30.456Z,7.31
2022-12-23T18:11:00.587Z,7.31
2022-12-23T18:13:29.090Z,7.31
2022-12-23T18:15:57.769Z,7.31
2022-12-23T18:18:36.817Z,7.33
2022-12-23T18:21:12.002Z,7.29
2022-12-23T18:23:40.417Z,7.31
2022-12-23T18:26:11.658Z,7.26
2022-12-23T18:28:40.257Z,7.24
2022-12-23T18:31:15.241Z,7.22
2022-12-23T18:33:45.312Z,7.18
2022-12-23T18:36:24.431Z,7.14
2022-12-23T18:38:54.167Z,7.11
2022-12-23T18:41:23.541Z,7.06
2022-12-23T18:43:52.808Z,7.05
2022-12-23T18:46:21.773Z,7.02
2022-12-23T18:48:51.747Z,6.98
2022-12-23T18:51:22.805Z,6.97
2022-12-23T18:53:51.425Z,6.94
2022-12-23T18:56:21.432Z,6.92
2022-12-23T18:58:51.294Z,6.93
2022-12-23T19:01:20.440Z,6.90
2022-12-23T19:03:50.490Z,6.88
2022-12-23T19:06:18.898Z,6.85
2022-12-23T19:08:47.417Z,6.85
2022-12-23T19:11:18.539Z,6.84
2022-12-23T19:13:47.224Z,6.83
2022-12-23T19:16:18.358Z,6.82
2022-12-23T19:18:48.560Z,6.83
2022-12-23T19:21:19.851Z,6.81
2022-12-23T19:23:48.251Z,6.82
2022-12-23T19:26:17.477Z,6.81
2022-12-23T19:28:55.632Z,6.77
2022-12-23T19:31:25.479Z,6.73
2022-12-23T19:34:00.722Z,6.70
2022-12-23T19:36:40.302Z,6.68
2022-12-23T19:39:12.517Z,6.66
2022-12-23T19:41:41.380Z,6.65
2022-12-23T19:44:14.853Z,6.65
2022-12-23T19:46:52.372Z,6.63
2022-12-23T19:49:21.227Z,6.62
2022-12-23T19:51:51.874Z,6.61
2022-12-23T19:54:21.813Z,6.60
2022-12-23T19:56:53.132Z,6.58
2022-12-23T19:59:22.943Z,6.58
2022-12-23T20:01:54.595Z,6.58
2022-12-23T20:04:25.276Z,6.56
2022-12-23T20:06:55.575Z,6.56
2022-12-23T20:09:32.661Z,6.57
2022-12-23T20:12:08.306Z,6.53
2022-12-23T20:14:37.437Z,6.54
2022-12-23T20:17:06.532Z,6.57
2022-12-23T20:19:45.599Z,6.59
2022-12-23T20:22:16.493Z,6.59
2022-12-23T20:24:45.620Z,6.58
2022-12-23T20:27:19.124Z,6.56
2022-12-23T20:29:51.878Z,6.56
2022-12-23T20:32:20.669Z,6.55
2022-12-23T20:34:50.873Z,6.53
2022-12-23T20:37:21.113Z,6.49
2022-12-23T20:39:54.556Z,6.48
2022-12-23T20:42:23.570Z,6.46
2022-12-23T20:44:52.657Z,6.45
2022-12-23T20:47:21.512Z,6.40
2022-12-23T20:50:02.688Z,6.40
2022-12-23T20:52:33.568Z,6.39
2022-12-23T20:55:04.414Z,6.37
2022-12-23T20:57:36.501Z,6.39
2022-12-23T21:00:06.504Z,6.37
2022-12-23T21:02:35.118Z,6.37
2022-12-23T21:05:07.005Z,6.35
2022-12-23T21:07:39.892Z,6.35
2022-12-23T21:10:18.174Z,6.33
2022-12-23T21:12:48.748Z,6.35
2022-12-23T21:15:19.871Z,6.36
2022-12-23T21:17:48.591Z,6.36
2022-12-23T21:20:19.312Z,6.36
2022-12-23T21:22:51.399Z,6.39
2022-12-23T21:25:19.845Z,6.39
2022-12-23T21:27:49.254Z,6.37
2022-12-23T21:30:19.268Z,6.35
2022-12-23T21:32:50.064Z,6.34
2022-12-23T21:35:19.110Z,6.31
2022-12-23T21:37:49.264Z,6.31
2022-12-23T21:40:18.260Z,6.29
2022-12-23T21:42:47.137Z,6.30
2022-12-23T21:45:18.148Z,6.28
2022-12-23T21:47:49.242Z,6.29
2022-12-23T21:50:17.924Z,6.28
2022-12-23T21:52:46.579Z,6.29
2022-12-23T21:55:18.313Z,6.28
2022-12-23T21:57:46.925Z,6.31
2022-12-23T22:00:16.467Z,6.31
2022-12-23T22:02:46.313Z,6.32
2022-12-23T22:05:17.925Z,6.32
2022-12-23T22:07:46.547Z,6.28
2022-12-23T22:10:16.620Z,6.29
2022-12-23T22:12:46.126Z,6.28
2022-12-23T22:15:14.801Z,6.28
2022-12-23T22:17:44.214Z,6.26
2022-12-23T22:20:14.409Z,6.27
2022-12-23T22:22:43.483Z,6.27
2022-12-23T22:25:12.183Z,6.26
2022-12-23T22:27:42.524Z,6.27
2022-12-23T22:30:12.034Z,6.27
2022-12-23T22:32:42.599Z,6.29
2022-12-23T22:35:11.501Z,6.28
2022-12-23T22:37:39.897Z,6.28
2022-12-23T22:40:10.343Z,6.31
2022-12-23T22:42:38.840Z,6.29
2022-12-23T22:45:13.332Z,6.28
2022-12-23T22:47:42.401Z,6.28
2022-12-23T22:50:11.684Z,6.24
2022-12-23T22:52:40.329Z,6.24
2022-12-23T22:55:10.155Z,6.22
2022-12-23T22:57:38.591Z,6.23
2022-12-23T23:00:12.525Z,6.22
2022-12-23T23:02:41.582Z,6.20
2022-12-23T23:05:13.022Z,6.18
2022-12-23T23:07:41.881Z,6.18
2022-12-23T23:10:11.822Z,6.18
2022-12-23T23:12:40.224Z,6.20
2022-12-23T23:15:12.266Z,6.22
2022-12-23T23:17:40.612Z,6.22
2022-12-23T23:20:11.000Z,6.24
2022-12-23T23:22:39.432Z,6.24
2022-12-23T23:25:09.031Z,6.26
2022-12-23T23:27:37.386Z,6.26
2022-12-23T23:30:06.916Z,6.25
2022-12-23T23:32:36.646Z,6.23
2022-12-23T23:35:10.694Z,6.22
2022-12-23T23:37:39.512Z,6.23
2022-12-23T23:40:09.963Z,6.24
2022-12-23T23:42:38.371Z,6.27
2022-12-23T23:45:08.839Z,6.28
2022-12-23T23:47:38.571Z,6.32
2022-12-23T23:50:09.506Z,6.32
2022-12-23T23:52:37.953Z,6.33
2022-12-23T23:55:07.854Z,6.32
2022-12-23T23:57:36.240Z,6.34
